createdAt,value
2019-02-25T16:16:19.993Z,103078.19
2019-02-25T16:18:49.885Z,103078.95
2019-02-25T16:21:19.421Z,103086.20
2019-02-25T16:23:48.920Z,103082.34
2019-02-25T16:26:20.085Z,103088.21
2019-02-25T16:28:53.130Z,103071.66
2019-02-25T16:31:24.014Z,103079.44
2019-02-25T16:33:55.419Z,103076.41
2019-02-25T16:36:26.240Z,103069.81
2019-02-25T16:38:58.078Z,103066.09
2019-02-25T16:41:31.762Z,103073.19
2019-02-25T16:43:59.549Z,103074.08
2019-02-25T16:46:29.667Z,103069.17
2019-02-25T16:48:59.209Z,103072.11
2019-02-25T16:51:30.517Z,103070.34
2019-02-25T16:54:00.273Z,103066.00
2019-02-25T16:56:29.858Z,103067.41
2019-02-25T16:58:59.381Z,103063.61
2019-02-25T17:01:29.951Z,103073.39
2019-02-25T17:04:00.125Z,103075.23
2019-02-25T17:06:30.294Z,103077.59
2019-02-25T17:09:00.829Z,103071.45
2019-02-25T17:11:31.980Z,103070.64
2019-02-25T17:14:03.308Z,103069.58
2019-02-25T17:16:32.714Z,103071.73
2019-02-25T17:19:02.239Z,103077.09
2019-02-25T17:21:31.763Z,103071.97
2019-02-25T17:24:03.628Z,103074.07
2019-02-25T17:26:32.545Z,103074.28
2019-02-25T17:29:02.080Z,103074.28
2019-02-25T17:31:32.338Z,103068.76
2019-02-25T17:34:02.865Z,103076.50
2019-02-25T17:36:32.497Z,103074.73
2019-02-25T17:39:02.004Z,103078.70
2019-02-25T17:41:34.067Z,103080.19
2019-02-25T17:44:05.283Z,103086.75
2019-02-25T17:46:37.010Z,103083.38
2019-02-25T17:49:07.887Z,103079.52
2019-02-25T17:51:38.333Z,103082.59
2019-02-25T17:54:08.562Z,103091.53
2019-02-25T17:56:40.521Z,103087.48
2019-02-25T17:59:10.388Z,103085.52
2019-02-25T18:01:40.437Z,103085.73
2019-02-25T18:04:11.178Z,103090.52
2019-02-25T18:06:41.447Z,103096.12
2019-02-25T18:09:11.237Z,103100.66
2019-02-25T18:11:42.848Z,103098.09
2019-02-25T18:14:13.376Z,103102.25
2019-02-25T18:16:46.033Z,103109.70
2019-02-25T18:19:15.904Z,103113.23
2019-02-25T18:21:47.010Z,103109.80
2019-02-25T18:24:16.531Z,103108.96
2019-02-25T18:26:46.923Z,103108.02
2019-02-25T18:29:19.125Z,103110.50
2019-02-25T18:31:49.277Z,103107.13
2019-02-25T18:34:18.910Z,103109.84
2019-02-25T18:36:49.042Z,103116.95
2019-02-25T18:39:20.972Z,103108.55
2019-02-25T18:41:52.886Z,103110.86
2019-02-25T18:44:22.441Z,103101.58
2019-02-25T18:46:52.319Z,103103.01
2019-02-25T18:49:21.986Z,103099.72
2019-02-25T18:51:51.674Z,103099.38
2019-02-25T18:54:22.902Z,103101.25
2019-02-25T18:56:52.437Z,103101.09
2019-02-25T18:59:23.126Z,103095.15
2019-02-25T19:01:54.078Z,103092.19
2019-02-25T19:04:24.321Z,103094.88
2019-02-25T19:06:53.857Z,103096.60
2019-02-25T19:09:25.502Z,103089.47
2019-02-25T19:11:56.203Z,103026.09
2019-02-25T19:14:26.510Z,103090.86
2019-02-25T19:16:57.760Z,103082.52
2019-02-25T19:19:28.495Z,103084.22
2019-02-25T19:21:58.068Z,103081.67
2019-02-25T19:24:27.570Z,103077.73
2019-02-25T19:26:57.089Z,103073.69
2019-02-25T19:29:28.168Z,103076.66
2019-02-25T19:32:00.613Z,103082.30
2019-02-25T19:34:30.188Z,103084.29
2019-02-25T19:37:02.239Z,103089.79
2019-02-25T19:39:30.995Z,103082.91
2019-02-25T19:42:00.928Z,103079.70
2019-02-25T19:44:32.131Z,103076.98
2019-02-25T19:47:01.766Z,103069.26
2019-02-25T19:49:31.313Z,103066.05
2019-02-25T19:52:00.848Z,103059.03
2019-02-25T19:54:34.068Z,103056.11
2019-02-25T19:57:01.598Z,103047.33
2019-02-25T19:59:32.097Z,103048.05
2019-02-25T20:02:01.597Z,103049.33
2019-02-25T20:04:33.463Z,103043.86
2019-02-25T20:07:02.404Z,103051.34
2019-02-25T20:09:32.108Z,103051.62
2019-02-25T20:12:01.962Z,103060.76
2019-02-25T20:14:31.875Z,103062.70
2019-02-25T20:17:02.700Z,103072.25
2019-02-25T20:19:32.348Z,103073.47
2019-02-25T20:22:01.862Z,103073.64
2019-02-25T20:24:31.369Z,103067.65
2019-02-25T20:27:02.536Z,103066.44
2019-02-25T20:29:33.769Z,103074.36
2019-02-25T20:32:03.344Z,103073.30
2019-02-25T20:34:34.715Z,103064.04
2019-02-25T20:37:04.117Z,103059.27
2019-02-25T20:39:35.997Z,103066.53
2019-02-25T20:42:05.979Z,103067.91
2019-02-25T20:44:35.514Z,103068.20
2019-02-25T20:47:05.123Z,103064.10
2019-02-25T20:49:34.606Z,103063.11
2019-02-25T20:52:04.115Z,103069.70
2019-02-25T20:54:38.000Z,103071.09
2019-02-25T20:57:05.410Z,103075.91
2019-02-25T20:59:35.055Z,103070.53
2019-02-25T21:02:09.710Z,103076.41
2019-02-25T21:04:38.660Z,103075.24
2019-02-25T21:07:08.847Z,103073.87
2019-02-25T21:09:40.378Z,103081.62
2019-02-25T21:12:12.692Z,103081.23
2019-02-25T21:14:43.221Z,103083.98
2019-02-25T21:17:12.888Z,103087.58
2019-02-25T21:19:44.295Z,103079.74
2019-02-25T21:22:13.876Z,103079.74
2019-02-25T21:24:43.403Z,103086.59
2019-02-25T21:27:12.967Z,103085.81
2019-02-25T21:29:42.504Z,103092.50
2019-02-25T21:32:15.340Z,103098.55
2019-02-25T21:34:46.538Z,103098.17
2019-02-25T21:37:14.439Z,103103.53
2019-02-25T21:39:43.972Z,103105.22
2019-02-25T21:42:15.446Z,103106.47
2019-02-25T21:44:46.406Z,103101.83
2019-02-25T21:47:15.899Z,103101.83
2019-02-25T21:49:45.390Z,103098.90
2019-02-25T21:52:17.062Z,103103.49
2019-02-25T21:54:46.101Z,103091.15
2019-02-25T21:57:16.587Z,103089.97
2019-02-25T21:59:46.121Z,103085.19
2019-02-25T22:02:15.706Z,103080.27
2019-02-25T22:04:47.303Z,103077.91
2019-02-25T22:07:20.028Z,103073.87
2019-02-25T22:09:47.667Z,103066.03
2019-02-25T22:12:17.188Z,103076.02
2019-02-25T22:14:47.790Z,103074.14
2019-02-25T22:17:19.967Z,103076.95
2019-02-25T22:19:50.199Z,103068.59
2019-02-25T22:22:24.162Z,103072.61
2019-02-25T22:24:50.941Z,103065.52
2019-02-25T22:27:21.250Z,103061.31
2019-02-25T22:29:51.688Z,103062.17
2019-02-25T22:32:21.182Z,103063.70
2019-02-25T22:34:50.700Z,103057.70
2019-02-25T22:37:22.596Z,103054.84
2019-02-25T22:39:52.616Z,103049.76
2019-02-25T22:42:22.628Z,103050.36
2019-02-25T22:44:53.898Z,103040.14
2019-02-25T22:47:23.327Z,103037.69
2019-02-25T22:49:52.831Z,103038.50
2019-02-25T22:52:24.792Z,103037.69
2019-02-25T22:54:53.539Z,103031.30
2019-02-25T22:57:24.835Z,103035.05
2019-02-25T22:59:54.360Z,103029.89
2019-02-25T23:02:27.288Z,103030.34
2019-02-25T23:04:56.292Z,103031.34
2019-02-25T23:07:27.194Z,103032.73
2019-02-25T23:09:56.688Z,103029.96
2019-02-25T23:12:28.464Z,103028.50
2019-02-25T23:14:58.769Z,103018.06
2019-02-25T23:17:31.073Z,103014.52
2019-02-25T23:20:00.599Z,103022.91
2019-02-25T23:22:32.921Z,103024.25
2019-02-25T23:25:03.370Z,103025.48
2019-02-25T23:27:34.484Z,103026.94
2019-02-25T23:30:08.402Z,103020.27
2019-02-25T23:32:38.840Z,103015.45
2019-02-25T23:35:09.407Z,103020.34
2019-02-25T23:37:38.391Z,103006.28
2019-02-25T23:40:09.598Z,103007.44
2019-02-25T23:42:46.549Z,103003.31
2019-02-25T23:45:17.922Z,103015.31
2019-02-25T23:47:47.306Z,103013.27
2019-02-25T23:50:16.821Z,103004.59
2019-02-25T23:52:47.265Z,102994.56
2019-02-25T23:55:19.076Z,102988.14
2019-02-25T23:57:47.980Z,102992.48
